sensor_id;sensor_type;location;lat;lon;timestamp;noise_LAeq;noise_LA_min;noise_LA_max;noise_LA01;noise_LA95
68945;Laerm;55984;48.790;8.990;2023-05-23T00:00:42;42.76;34.99;47.55;;
68945;Laerm;55984;48.790;8.990;2023-05-23T00:03:27;43.83;36.78;49.44;;
68945;Laerm;55984;48.790;8.990;2023-05-23T00:05:55;44.01;36.13;49.51;;
68945;Laerm;55984;48.790;8.990;2023-05-23T00:08:23;43.65;35.63;48.71;;
68945;Laerm;55984;48.790;8.990;2023-05-23T00:10:49;43.53;35.96;49.02;;
68945;Laerm;55984;48.790;8.990;2023-05-23T00:13:15;43.80;35.80;48.20;;
68945;Laerm;55984;48.790;8.990;2023-05-23T00:15:41;43.30;34.59;48.03;;
68945;Laerm;55984;48.790;8.990;2023-05-23T00:18:08;42.62;34.40;47.84;;
68945;Laerm;55984;48.790;8.990;2023-05-23T00:20:36;42.18;33.22;47.77;;
68945;Laerm;55984;48.790;8.990;2023-05-23T00:23:05;43.20;33.42;49.49;;
68945;Laerm;55984;48.790;8.990;2023-05-23T00:25:32;38.80;34.75;46.60;;
68945;Laerm;55984;48.790;8.990;2023-05-23T00:28:02;38.64;32.87;43.81;;
68945;Laerm;55984;48.790;8.990;2023-05-23T00:30:32;39.19;33.55;45.48;;
68945;Laerm;55984;48.790;8.990;2023-05-23T00:32:58;40.14;34.44;47.74;;
68945;Laerm;55984;48.790;8.990;2023-05-23T00:35:26;41.23;34.19;47.47;;
68945;Laerm;55984;48.790;8.990;2023-05-23T00:37:52;41.81;34.61;47.14;;
68945;Laerm;55984;48.790;8.990;2023-05-23T00:40:20;42.52;36.15;47.86;;
68945;Laerm;55984;48.790;8.990;2023-05-23T00:42:46;42.92;36.01;48.10;;
68945;Laerm;55984;48.790;8.990;2023-05-23T00:45:16;43.47;36.39;48.68;;
68945;Laerm;55984;48.790;8.990;2023-05-23T00:47:43;41.99;34.64;47.53;;
68945;Laerm;55984;48.790;8.990;2023-05-23T00:50:13;42.26;36.45;47.78;;
68945;Laerm;55984;48.790;8.990;2023-05-23T00:52:44;41.57;33.86;47.53;;
68945;Laerm;55984;48.790;8.990;2023-05-23T00:55:13;44.90;39.24;52.19;;
68945;Laerm;55984;48.790;8.990;2023-05-23T00:57:39;43.47;35.43;49.83;;
68945;Laerm;55984;48.790;8.990;2023-05-23T01:00:11;41.93;34.96;47.74;;
68945;Laerm;55984;48.790;8.990;2023-05-23T01:02:43;42.42;36.62;47.12;;
68945;Laerm;55984;48.790;8.990;2023-05-23T01:05:11;42.30;34.59;50.77;;
68945;Laerm;55984;48.790;8.990;2023-05-23T01:07:39;40.72;34.78;47.95;;
68945;Laerm;55984;48.790;8.990;2023-05-23T01:10:06;42.92;38.08;47.82;;
68945;Laerm;55984;48.790;8.990;2023-05-23T01:12:57;42.81;35.94;49.00;;
68945;Laerm;55984;48.790;8.990;2023-05-23T01:15:40;42.63;36.03;48.89;;
68945;Laerm;55984;48.790;8.990;2023-05-23T01:18:11;41.74;35.78;46.30;;
68945;Laerm;55984;48.790;8.990;2023-05-23T01:20:56;40.89;35.27;46.47;;
68945;Laerm;55984;48.790;8.990;2023-05-23T01:23:35;42.41;36.66;46.99;;
68945;Laerm;55984;48.790;8.990;2023-05-23T01:29:27;42.13;35.96;48.11;;
68945;Laerm;55984;48.790;8.990;2023-05-23T01:31:57;43.40;36.31;49.76;;
68945;Laerm;55984;48.790;8.990;2023-05-23T01:34:24;44.51;37.31;50.53;;
68945;Laerm;55984;48.790;8.990;2023-05-23T01:36:53;44.27;35.84;50.54;;
68945;Laerm;55984;48.790;8.990;2023-05-23T01:39:22;43.25;34.42;48.45;;
68945;Laerm;55984;48.790;8.990;2023-05-23T01:41:50;44.41;36.39;48.82;;
68945;Laerm;55984;48.790;8.990;2023-05-23T01:44:16;44.15;36.69;48.41;;
68945;Laerm;55984;48.790;8.990;2023-05-23T01:46:43;43.85;35.82;49.22;;
68945;Laerm;55984;48.790;8.990;2023-05-23T01:49:11;44.12;35.76;53.70;;
68945;Laerm;55984;48.790;8.990;2023-05-23T01:51:37;43.61;35.78;48.97;;
68945;Laerm;55984;48.790;8.990;2023-05-23T01:54:03;43.25;35.15;48.10;;
68945;Laerm;55984;48.790;8.990;2023-05-23T01:56:29;44.02;37.74;50.83;;
68945;Laerm;55984;48.790;8.990;2023-05-23T01:58:55;43.42;35.35;48.19;;
68945;Laerm;55984;48.790;8.990;2023-05-23T02:01:21;43.57;37.08;48.62;;
68945;Laerm;55984;48.790;8.990;2023-05-23T02:03:48;43.25;36.33;48.84;;
68945;Laerm;55984;48.790;8.990;2023-05-23T02:06:14;43.82;36.41;49.40;;
68945;Laerm;55984;48.790;8.990;2023-05-23T02:08:39;41.69;33.52;47.78;;
68945;Laerm;55984;48.790;8.990;2023-05-23T02:11:05;44.62;37.11;53.43;;
68945;Laerm;55984;48.790;8.990;2023-05-23T02:13:33;45.03;39.13;55.93;;
68945;Laerm;55984;48.790;8.990;2023-05-23T02:15:59;45.55;38.06;49.92;;
68945;Laerm;55984;48.790;8.990;2023-05-23T02:18:25;45.74;39.65;49.93;;
68945;Laerm;55984;48.790;8.990;2023-05-23T02:20:53;44.45;37.95;48.86;;
68945;Laerm;55984;48.790;8.990;2023-05-23T02:23:20;45.26;39.62;53.36;;
68945;Laerm;55984;48.790;8.990;2023-05-23T02:25:45;45.24;39.18;49.55;;
68945;Laerm;55984;48.790;8.990;2023-05-23T02:28:11;45.76;39.84;50.11;;
68945;Laerm;55984;48.790;8.990;2023-05-23T02:30:37;45.45;39.19;50.98;;
68945;Laerm;55984;48.790;8.990;2023-05-23T02:33:04;44.45;38.95;49.88;;
68945;Laerm;55984;48.790;8.990;2023-05-23T02:35:30;43.07;38.57;47.26;;
68945;Laerm;55984;48.790;8.990;2023-05-23T02:37:56;43.64;38.50;50.27;;
68945;Laerm;55984;48.790;8.990;2023-05-23T02:40:22;44.81;38.17;54.69;;
68945;Laerm;55984;48.790;8.990;2023-05-23T02:42:48;46.55;41.01;52.99;;
68945;Laerm;55984;48.790;8.990;2023-05-23T02:45:16;48.81;40.46;61.94;;
68945;Laerm;55984;48.790;8.990;2023-05-23T02:47:41;49.21;40.96;63.65;;
68945;Laerm;55984;48.790;8.990;2023-05-23T02:50:08;49.03;41.32;60.37;;
68945;Laerm;55984;48.790;8.990;2023-05-23T02:52:34;49.29;40.99;61.38;;
68945;Laerm;55984;48.790;8.990;2023-05-23T02:55:00;48.90;40.73;62.10;;
68945;Laerm;55984;48.790;8.990;2023-05-23T02:57:26;48.59;40.74;61.87;;
68945;Laerm;55984;48.790;8.990;2023-05-23T02:59:52;49.43;40.74;62.36;;
68945;Laerm;55984;48.790;8.990;2023-05-23T03:02:17;49.50;41.26;62.86;;
68945;Laerm;55984;48.790;8.990;2023-05-23T03:04:43;49.82;42.11;62.15;;
68945;Laerm;55984;48.790;8.990;2023-05-23T03:07:09;49.01;41.03;62.27;;
68945;Laerm;55984;48.790;8.990;2023-05-23T03:09:36;49.33;41.14;61.92;;
68945;Laerm;55984;48.790;8.990;2023-05-23T03:12:02;49.97;40.31;64.12;;
68945;Laerm;55984;48.790;8.990;2023-05-23T03:14:28;49.71;40.87;61.68;;
68945;Laerm;55984;48.790;8.990;2023-05-23T03:16:54;50.20;41.97;62.38;;
68945;Laerm;55984;48.790;8.990;2023-05-23T03:19:20;48.45;41.69;60.16;;
68945;Laerm;55984;48.790;8.990;2023-05-23T03:21:46;47.64;41.21;51.87;;
68945;Laerm;55984;48.790;8.990;2023-05-23T03:24:14;47.48;41.31;56.02;;
68945;Laerm;55984;48.790;8.990;2023-05-23T03:26:39;47.90;42.81;54.31;;
68945;Laerm;55984;48.790;8.990;2023-05-23T03:29:05;47.36;40.79;52.42;;
68945;Laerm;55984;48.790;8.990;2023-05-23T03:31:31;47.34;40.87;55.22;;
68945;Laerm;55984;48.790;8.990;2023-05-23T03:33:57;47.25;41.09;54.47;;
68945;Laerm;55984;48.790;8.990;2023-05-23T03:36:23;47.84;42.23;54.29;;
68945;Laerm;55984;48.790;8.990;2023-05-23T03:38:52;46.70;41.12;55.69;;
68945;Laerm;55984;48.790;8.990;2023-05-23T03:41:18;46.79;40.76;57.46;;
68945;Laerm;55984;48.790;8.990;2023-05-23T03:43:44;46.14;40.90;50.24;;
68945;Laerm;55984;48.790;8.990;2023-05-23T03:46:10;45.56;41.55;50.49;;
68945;Laerm;55984;48.790;8.990;2023-05-23T03:48:36;45.51;41.56;48.90;;
68945;Laerm;55984;48.790;8.990;2023-05-23T03:51:02;47.13;42.10;57.99;;
68945;Laerm;55984;48.790;8.990;2023-05-23T03:53:28;45.46;40.24;49.43;;
68945;Laerm;55984;48.790;8.990;2023-05-23T03:55:54;45.27;40.95;49.85;;
68945;Laerm;55984;48.790;8.990;2023-05-23T03:58:19;46.29;41.30;57.89;;
68945;Laerm;55984;48.790;8.990;2023-05-23T04:00:45;46.92;41.98;58.82;;
68945;Laerm;55984;48.790;8.990;2023-05-23T04:03:11;45.73;41.68;50.50;;
68945;Laerm;55984;48.790;8.990;2023-05-23T04:05:41;45.86;41.62;54.89;;
68945;Laerm;55984;48.790;8.990;2023-05-23T04:08:07;45.60;41.74;49.73;;
68945;Laerm;55984;48.790;8.990;2023-05-23T04:10:33;47.18;41.40;52.58;;
68945;Laerm;55984;48.790;8.990;2023-05-23T04:12:59;45.95;41.42;50.49;;
68945;Laerm;55984;48.790;8.990;2023-05-23T04:15:25;46.93;42.44;51.01;;
68945;Laerm;55984;48.790;8.990;2023-05-23T04:17:52;47.20;42.39;51.26;;
68945;Laerm;55984;48.790;8.990;2023-05-23T04:20:18;47.94;41.91;52.07;;
68945;Laerm;55984;48.790;8.990;2023-05-23T04:22:44;47.78;40.46;53.55;;
68945;Laerm;55984;48.790;8.990;2023-05-23T04:25:10;47.10;41.45;52.19;;
68945;Laerm;55984;48.790;8.990;2023-05-23T04:27:36;49.26;41.12;61.73;;
68945;Laerm;55984;48.790;8.990;2023-05-23T04:30:05;48.24;42.40;55.54;;
68945;Laerm;55984;48.790;8.990;2023-05-23T04:32:33;48.56;42.38;56.93;;
68945;Laerm;55984;48.790;8.990;2023-05-23T04:34:59;48.68;42.76;54.41;;
68945;Laerm;55984;48.790;8.990;2023-05-23T04:37:26;48.58;42.27;60.14;;
68945;Laerm;55984;48.790;8.990;2023-05-23T04:39:52;47.31;41.72;53.09;;
68945;Laerm;55984;48.790;8.990;2023-05-23T04:42:24;47.45;42.95;58.16;;
68945;Laerm;55984;48.790;8.990;2023-05-23T04:44:51;48.39;42.35;58.93;;
68945;Laerm;55984;48.790;8.990;2023-05-23T04:47:17;48.03;43.37;52.88;;
68945;Laerm;55984;48.790;8.990;2023-05-23T04:49:43;47.38;42.57;52.82;;
68945;Laerm;55984;48.790;8.990;2023-05-23T04:52:09;47.19;41.56;50.94;;
68945;Laerm;55984;48.790;8.990;2023-05-23T04:54:35;47.57;42.46;54.00;;
68945;Laerm;55984;48.790;8.990;2023-05-23T04:57:02;47.25;40.93;52.87;;
68945;Laerm;55984;48.790;8.990;2023-05-23T04:59:27;46.76;41.22;54.44;;
68945;Laerm;55984;48.790;8.990;2023-05-23T05:01:53;47.07;41.66;54.75;;
68945;Laerm;55984;48.790;8.990;2023-05-23T05:04:19;48.21;41.78;62.54;;
68945;Laerm;55984;48.790;8.990;2023-05-23T05:06:47;46.93;41.87;52.36;;
68945;Laerm;55984;48.790;8.990;2023-05-23T05:09:12;49.47;42.44;64.37;;
68945;Laerm;55984;48.790;8.990;2023-05-23T05:11:39;47.38;42.17;59.49;;
68945;Laerm;55984;48.790;8.990;2023-05-23T05:14:05;48.30;42.00;60.63;;
68945;Laerm;55984;48.790;8.990;2023-05-23T05:16:30;49.34;43.16;64.82;;
68945;Laerm;55984;48.790;8.990;2023-05-23T05:18:59;48.30;42.29;61.54;;
68945;Laerm;55984;48.790;8.990;2023-05-23T05:21:26;47.96;42.15;56.32;;
68945;Laerm;55984;48.790;8.990;2023-05-23T05:23:52;50.09;42.68;63.57;;
68945;Laerm;55984;48.790;8.990;2023-05-23T05:26:18;49.01;41.69;66.60;;
68945;Laerm;55984;48.790;8.990;2023-05-23T05:28:44;46.93;41.68;57.20;;
68945;Laerm;55984;48.790;8.990;2023-05-23T05:31:10;47.48;42.46;59.03;;
68945;Laerm;55984;48.790;8.990;2023-05-23T05:33:39;47.83;43.10;60.52;;
68945;Laerm;55984;48.790;8.990;2023-05-23T05:36:06;47.39;42.38;54.67;;
68945;Laerm;55984;48.790;8.990;2023-05-23T05:38:32;46.96;41.63;55.46;;
68945;Laerm;55984;48.790;8.990;2023-05-23T05:40:58;49.07;41.92;64.65;;
68945;Laerm;55984;48.790;8.990;2023-05-23T05:43:25;51.16;42.43;65.27;;
68945;Laerm;55984;48.790;8.990;2023-05-23T05:45:51;49.02;42.94;62.15;;
68945;Laerm;55984;48.790;8.990;2023-05-23T05:48:17;48.03;42.73;54.02;;
68945;Laerm;55984;48.790;8.990;2023-05-23T05:50:42;52.23;43.84;74.82;;
68945;Laerm;55984;48.790;8.990;2023-05-23T05:53:10;48.04;42.54;54.83;;
68945;Laerm;55984;48.790;8.990;2023-05-23T05:55:36;48.37;43.49;57.73;;
68945;Laerm;55984;48.790;8.990;2023-05-23T05:58:03;47.88;43.07;54.07;;
68945;Laerm;55984;48.790;8.990;2023-05-23T06:00:29;47.40;42.02;54.42;;
68945;Laerm;55984;48.790;8.990;2023-05-23T06:02:55;47.29;41.83;52.87;;
68945;Laerm;55984;48.790;8.990;2023-05-23T06:05:24;47.65;43.17;59.40;;
68945;Laerm;55984;48.790;8.990;2023-05-23T06:07:50;48.97;42.79;62.28;;
68945;Laerm;55984;48.790;8.990;2023-05-23T06:10:19;51.50;42.86;66.83;;
68945;Laerm;55984;48.790;8.990;2023-05-23T06:12:45;46.63;43.14;51.80;;
68945;Laerm;55984;48.790;8.990;2023-05-23T06:15:11;49.19;43.05;64.41;;
68945;Laerm;55984;48.790;8.990;2023-05-23T06:17:38;47.49;43.27;53.53;;
68945;Laerm;55984;48.790;8.990;2023-05-23T06:20:05;50.16;41.84;67.30;;
68945;Laerm;55984;48.790;8.990;2023-05-23T06:22:32;47.55;42.13;59.00;;
68945;Laerm;55984;48.790;8.990;2023-05-23T06:24:58;47.53;42.32;53.47;;
68945;Laerm;55984;48.790;8.990;2023-05-23T06:27:24;48.47;43.52;58.75;;
68945;Laerm;55984;48.790;8.990;2023-05-23T06:29:51;48.26;41.88;55.41;;
68945;Laerm;55984;48.790;8.990;2023-05-23T06:32:17;47.86;42.71;52.14;;
68945;Laerm;55984;48.790;8.990;2023-05-23T06:34:43;47.51;42.44;55.20;;
68945;Laerm;55984;48.790;8.990;2023-05-23T06:37:09;47.76;42.46;54.47;;
68945;Laerm;55984;48.790;8.990;2023-05-23T06:39:34;48.45;44.25;55.65;;
68945;Laerm;55984;48.790;8.990;2023-05-23T06:42:01;48.50;43.28;53.68;;
68945;Laerm;55984;48.790;8.990;2023-05-23T06:44:32;48.57;41.54;55.48;;
68945;Laerm;55984;48.790;8.990;2023-05-23T06:47:05;48.88;42.41;63.69;;
68945;Laerm;55984;48.790;8.990;2023-05-23T06:49:30;47.59;42.78;56.56;;
68945;Laerm;55984;48.790;8.990;2023-05-23T06:51:56;46.72;41.31;53.09;;
68945;Laerm;55984;48.790;8.990;2023-05-23T06:54:22;49.52;42.68;62.99;;
68945;Laerm;55984;48.790;8.990;2023-05-23T06:56:48;47.38;42.30;57.97;;
68945;Laerm;55984;48.790;8.990;2023-05-23T06:59:15;47.12;42.14;54.47;;
68945;Laerm;55984;48.790;8.990;2023-05-23T07:01:41;48.60;42.81;66.46;;
68945;Laerm;55984;48.790;8.990;2023-05-23T07:04:07;47.31;42.64;54.74;;
68945;Laerm;55984;48.790;8.990;2023-05-23T07:06:34;47.20;42.87;54.91;;
68945;Laerm;55984;48.790;8.990;2023-05-23T07:09:00;49.06;42.76;69.05;;
68945;Laerm;55984;48.790;8.990;2023-05-23T07:11:26;47.68;42.85;55.34;;
68945;Laerm;55984;48.790;8.990;2023-05-23T07:13:52;48.71;43.56;53.14;;
68945;Laerm;55984;48.790;8.990;2023-05-23T07:16:21;49.89;43.82;69.91;;
68945;Laerm;55984;48.790;8.990;2023-05-23T07:18:46;49.31;44.21;55.96;;
68945;Laerm;55984;48.790;8.990;2023-05-23T07:21:12;48.76;42.87;55.57;;
68945;Laerm;55984;48.790;8.990;2023-05-23T07:23:39;48.80;43.69;58.77;;
68945;Laerm;55984;48.790;8.990;2023-05-23T07:26:05;47.68;43.48;56.95;;
68945;Laerm;55984;48.790;8.990;2023-05-23T07:28:33;46.31;41.33;50.73;;
68945;Laerm;55984;48.790;8.990;2023-05-23T07:30:59;48.18;42.83;53.20;;
68945;Laerm;55984;48.790;8.990;2023-05-23T07:33:25;55.42;44.18;76.60;;
68945;Laerm;55984;48.790;8.990;2023-05-23T07:35:54;48.73;42.83;67.85;;
68945;Laerm;55984;48.790;8.990;2023-05-23T07:38:20;48.34;43.04;59.56;;
68945;Laerm;55984;48.790;8.990;2023-05-23T07:40:46;48.15;42.95;54.55;;
68945;Laerm;55984;48.790;8.990;2023-05-23T07:43:12;55.42;44.41;68.97;;
68945;Laerm;55984;48.790;8.990;2023-05-23T07:45:39;54.59;44.40;66.49;;
68945;Laerm;55984;48.790;8.990;2023-05-23T07:48:05;47.71;43.06;59.99;;
68945;Laerm;55984;48.790;8.990;2023-05-23T07:50:31;48.37;41.68;60.91;;
68945;Laerm;55984;48.790;8.990;2023-05-23T07:52:57;46.34;42.51;52.65;;
68945;Laerm;55984;48.790;8.990;2023-05-23T07:55:23;47.03;43.68;57.76;;
68945;Laerm;55984;48.790;8.990;2023-05-23T07:57:49;47.62;44.10;53.85;;
68945;Laerm;55984;48.790;8.990;2023-05-23T08:00:19;47.77;44.21;57.77;;
68945;Laerm;55984;48.790;8.990;2023-05-23T08:02:45;47.95;43.46;55.66;;
68945;Laerm;55984;48.790;8.990;2023-05-23T08:05:12;52.97;45.09;69.03;;
68945;Laerm;55984;48.790;8.990;2023-05-23T08:07:38;48.48;43.59;57.61;;
68945;Laerm;55984;48.790;8.990;2023-05-23T08:10:04;46.81;43.41;53.41;;
68945;Laerm;55984;48.790;8.990;2023-05-23T08:12:30;47.18;44.56;53.37;;
68945;Laerm;55984;48.790;8.990;2023-05-23T08:14:56;48.67;45.57;55.25;;
68945;Laerm;55984;48.790;8.990;2023-05-23T08:17:22;48.03;45.08;59.70;;
68945;Laerm;55984;48.790;8.990;2023-05-23T08:19:48;48.45;43.81;63.52;;
68945;Laerm;55984;48.790;8.990;2023-05-23T08:22:17;47.95;43.95;58.63;;
68945;Laerm;55984;48.790;8.990;2023-05-23T08:24:43;46.36;42.99;53.04;;
68945;Laerm;55984;48.790;8.990;2023-05-23T08:27:10;47.20;43.12;54.31;;
68945;Laerm;55984;48.790;8.990;2023-05-23T08:29:36;46.77;43.55;53.46;;
68945;Laerm;55984;48.790;8.990;2023-05-23T08:32:02;46.99;44.18;53.83;;
68945;Laerm;55984;48.790;8.990;2023-05-23T08:34:28;47.23;43.80;53.90;;
68945;Laerm;55984;48.790;8.990;2023-05-23T08:36:54;46.63;43.66;57.26;;
68945;Laerm;55984;48.790;8.990;2023-05-23T08:39:20;47.66;42.08;61.26;;
68945;Laerm;55984;48.790;8.990;2023-05-23T08:41:46;45.41;41.88;52.18;;
68945;Laerm;55984;48.790;8.990;2023-05-23T08:44:12;47.31;42.83;61.74;;
68945;Laerm;55984;48.790;8.990;2023-05-23T08:46:42;46.44;42.32;52.78;;
68945;Laerm;55984;48.790;8.990;2023-05-23T08:49:09;47.22;42.26;59.51;;
68945;Laerm;55984;48.790;8.990;2023-05-23T08:51:36;46.33;42.94;50.59;;
68945;Laerm;55984;48.790;8.990;2023-05-23T08:54:04;46.99;43.17;50.95;;
68945;Laerm;55984;48.790;8.990;2023-05-23T08:56:30;46.59;41.82;51.24;;
68945;Laerm;55984;48.790;8.990;2023-05-23T08:58:56;46.73;41.94;59.71;;
68945;Laerm;55984;48.790;8.990;2023-05-23T09:01:23;51.55;43.41;66.42;;
68945;Laerm;55984;48.790;8.990;2023-05-23T09:03:50;45.48;42.76;49.93;;
68945;Laerm;55984;48.790;8.990;2023-05-23T09:06:19;45.42;41.85;52.46;;
68945;Laerm;55984;48.790;8.990;2023-05-23T09:08:45;47.15;42.26;68.30;;
68945;Laerm;55984;48.790;8.990;2023-05-23T09:11:13;45.51;40.78;60.33;;
68945;Laerm;55984;48.790;8.990;2023-05-23T09:13:39;45.40;41.87;50.59;;
68945;Laerm;55984;48.790;8.990;2023-05-23T09:16:08;45.72;42.27;54.02;;
68945;Laerm;55984;48.790;8.990;2023-05-23T09:18:40;46.21;42.82;53.86;;
68945;Laerm;55984;48.790;8.990;2023-05-23T09:21:10;46.29;42.37;55.40;;
68945;Laerm;55984;48.790;8.990;2023-05-23T09:23:39;47.77;43.23;56.87;;
68945;Laerm;55984;48.790;8.990;2023-05-23T09:26:10;50.32;43.15;63.31;;
68945;Laerm;55984;48.790;8.990;2023-05-23T09:28:41;47.77;42.17;64.79;;
68945;Laerm;55984;48.790;8.990;2023-05-23T09:31:08;46.14;41.87;53.42;;
68945;Laerm;55984;48.790;8.990;2023-05-23T09:33:48;46.66;42.48;50.21;;
68945;Laerm;55984;48.790;8.990;2023-05-23T09:36:15;46.11;40.27;55.10;;
68945;Laerm;55984;48.790;8.990;2023-05-23T09:38:43;47.42;42.49;60.23;;
68945;Laerm;55984;48.790;8.990;2023-05-23T09:41:10;45.82;39.96;57.09;;
68945;Laerm;55984;48.790;8.990;2023-05-23T09:43:48;45.50;40.87;57.74;;
68945;Laerm;55984;48.790;8.990;2023-05-23T09:46:15;46.49;41.81;58.78;;
68945;Laerm;55984;48.790;8.990;2023-05-23T09:48:48;51.01;42.68;67.26;;
68945;Laerm;55984;48.790;8.990;2023-05-23T09:51:18;47.82;44.16;55.16;;
68945;Laerm;55984;48.790;8.990;2023-05-23T09:53:49;47.58;43.28;57.88;;
68945;Laerm;55984;48.790;8.990;2023-05-23T09:56:15;46.38;42.52;60.31;;
68945;Laerm;55984;48.790;8.990;2023-05-23T09:58:49;45.20;40.44;51.07;;
68945;Laerm;55984;48.790;8.990;2023-05-23T10:01:15;46.11;40.69;53.88;;
68945;Laerm;55984;48.790;8.990;2023-05-23T10:03:47;46.62;41.80;59.77;;
68945;Laerm;55984;48.790;8.990;2023-05-23T10:06:38;45.62;41.14;58.50;;
68945;Laerm;55984;48.790;8.990;2023-05-23T10:09:09;48.44;42.17;62.03;;
68945;Laerm;55984;48.790;8.990;2023-05-23T10:12:15;45.39;41.61;57.11;;
68945;Laerm;55984;48.790;8.990;2023-05-23T10:14:51;45.95;42.13;53.11;;
68945;Laerm;55984;48.790;8.990;2023-05-23T10:17:21;46.89;41.38;54.15;;
68945;Laerm;55984;48.790;8.990;2023-05-23T10:20:07;47.31;41.86;53.76;;
68945;Laerm;55984;48.790;8.990;2023-05-23T10:22:35;45.90;41.35;50.95;;
68945;Laerm;55984;48.790;8.990;2023-05-23T10:25:04;46.15;42.18;53.91;;
68945;Laerm;55984;48.790;8.990;2023-05-23T10:27:32;46.10;42.11;52.32;;
68945;Laerm;55984;48.790;8.990;2023-05-23T10:29:59;44.19;39.28;56.23;;
68945;Laerm;55984;48.790;8.990;2023-05-23T10:32:26;46.77;39.96;58.75;;
68945;Laerm;55984;48.790;8.990;2023-05-23T10:35:19;46.71;42.50;51.86;;
68945;Laerm;55984;48.790;8.990;2023-05-23T10:37:54;45.33;40.16;56.22;;
68945;Laerm;55984;48.790;8.990;2023-05-23T10:46:19;47.26;41.70;69.57;;
68945;Laerm;55984;48.790;8.990;2023-05-23T10:48:53;47.27;41.93;55.86;;
68945;Laerm;55984;48.790;8.990;2023-05-23T10:51:20;48.00;42.38;60.39;;
68945;Laerm;55984;48.790;8.990;2023-05-23T10:53:53;48.79;40.94;65.52;;
68945;Laerm;55984;48.790;8.990;2023-05-23T10:56:24;47.91;41.71;60.07;;
68945;Laerm;55984;48.790;8.990;2023-05-23T10:58:55;48.79;42.99;61.94;;
68945;Laerm;55984;48.790;8.990;2023-05-23T11:01:22;46.57;41.69;52.97;;
68945;Laerm;55984;48.790;8.990;2023-05-23T11:03:49;45.56;40.53;51.98;;
68945;Laerm;55984;48.790;8.990;2023-05-23T11:06:42;44.55;40.84;54.52;;
68945;Laerm;55984;48.790;8.990;2023-05-23T11:09:13;44.82;40.60;53.68;;
68945;Laerm;55984;48.790;8.990;2023-05-23T11:14:18;46.20;42.02;60.64;;
68945;Laerm;55984;48.790;8.990;2023-05-23T11:16:44;45.69;41.20;59.87;;
68945;Laerm;55984;48.790;8.990;2023-05-23T11:19:23;45.67;40.84;51.05;;
68945;Laerm;55984;48.790;8.990;2023-05-23T11:21:59;46.58;41.01;53.35;;
68945;Laerm;55984;48.790;8.990;2023-05-23T11:24:54;46.43;41.80;54.12;;
68945;Laerm;55984;48.790;8.990;2023-05-23T11:32:40;47.45;39.80;65.56;;
68945;Laerm;55984;48.790;8.990;2023-05-23T11:35:10;47.65;38.93;61.99;;
68945;Laerm;55984;48.790;8.990;2023-05-23T11:37:39;44.86;40.78;56.12;;
68945;Laerm;55984;48.790;8.990;2023-05-23T11:40:25;45.19;39.24;54.53;;
68945;Laerm;55984;48.790;8.990;2023-05-23T11:42:51;47.09;41.82;61.17;;
68945;Laerm;55984;48.790;8.990;2023-05-23T11:45:21;45.00;41.48;55.78;;
68945;Laerm;55984;48.790;8.990;2023-05-23T11:47:47;54.87;43.49;70.24;;
68945;Laerm;55984;48.790;8.990;2023-05-23T11:50:14;46.76;41.43;57.53;;
68945;Laerm;55984;48.790;8.990;2023-05-23T11:52:40;46.65;41.45;64.17;;
68945;Laerm;55984;48.790;8.990;2023-05-23T11:55:07;45.31;40.57;51.62;;
68945;Laerm;55984;48.790;8.990;2023-05-23T11:57:37;46.22;40.41;53.12;;
68945;Laerm;55984;48.790;8.990;2023-05-23T12:00:07;45.36;41.44;51.94;;
68945;Laerm;55984;48.790;8.990;2023-05-23T12:02:43;47.00;39.77;55.61;;
68945;Laerm;55984;48.790;8.990;2023-05-23T12:05:13;44.78;40.53;52.59;;
68945;Laerm;55984;48.790;8.990;2023-05-23T12:07:44;42.32;38.94;54.35;;
68945;Laerm;55984;48.790;8.990;2023-05-23T12:10:11;46.92;38.73;63.84;;
68945;Laerm;55984;48.790;8.990;2023-05-23T12:12:39;46.09;39.42;56.87;;
68945;Laerm;55984;48.790;8.990;2023-05-23T12:15:08;50.41;39.81;67.81;;
68945;Laerm;55984;48.790;8.990;2023-05-23T12:17:38;44.38;40.21;50.70;;
68945;Laerm;55984;48.790;8.990;2023-05-23T12:20:06;47.32;41.40;60.18;;
68945;Laerm;55984;48.790;8.990;2023-05-23T12:22:33;47.45;42.14;60.45;;
68945;Laerm;55984;48.790;8.990;2023-05-23T12:24:59;45.09;39.65;50.64;;
68945;Laerm;55984;48.790;8.990;2023-05-23T12:27:27;46.09;42.05;54.97;;
68945;Laerm;55984;48.790;8.990;2023-05-23T12:30:04;47.77;41.54;61.83;;
68945;Laerm;55984;48.790;8.990;2023-05-23T12:32:30;50.48;41.24;64.46;;
68945;Laerm;55984;48.790;8.990;2023-05-23T12:34:56;45.09;39.98;55.73;;
68945;Laerm;55984;48.790;8.990;2023-05-23T12:37:22;44.40;39.31;52.04;;
68945;Laerm;55984;48.790;8.990;2023-05-23T12:39:48;46.38;40.94;57.31;;
68945;Laerm;55984;48.790;8.990;2023-05-23T12:42:14;45.88;40.14;53.25;;
68945;Laerm;55984;48.790;8.990;2023-05-23T12:44:41;45.30;39.79;52.24;;
68945;Laerm;55984;48.790;8.990;2023-05-23T12:47:08;46.08;40.19;57.85;;
68945;Laerm;55984;48.790;8.990;2023-05-23T12:49:35;44.98;40.66;51.34;;
68945;Laerm;55984;48.790;8.990;2023-05-23T12:52:01;48.95;41.76;57.74;;
68945;Laerm;55984;48.790;8.990;2023-05-23T12:54:27;45.19;39.00;57.43;;
68945;Laerm;55984;48.790;8.990;2023-05-23T12:56:53;51.80;39.66;62.68;;
68945;Laerm;55984;48.790;8.990;2023-05-23T12:59:20;44.20;39.74;54.29;;
68945;Laerm;55984;48.790;8.990;2023-05-23T13:01:45;44.66;40.44;57.63;;
68945;Laerm;55984;48.790;8.990;2023-05-23T13:04:11;46.03;40.36;59.44;;
68945;Laerm;55984;48.790;8.990;2023-05-23T13:06:37;47.34;40.76;57.26;;
68945;Laerm;55984;48.790;8.990;2023-05-23T13:09:03;46.07;38.95;61.88;;
68945;Laerm;55984;48.790;8.990;2023-05-23T13:11:29;43.14;38.88;55.33;;
68945;Laerm;55984;48.790;8.990;2023-05-23T13:13:56;46.62;38.73;56.69;;
68945;Laerm;55984;48.790;8.990;2023-05-23T13:16:22;43.17;38.99;59.34;;
68945;Laerm;55984;48.790;8.990;2023-05-23T13:18:48;45.76;40.43;59.53;;
68945;Laerm;55984;48.790;8.990;2023-05-23T13:21:14;47.51;41.62;59.01;;
68945;Laerm;55984;48.790;8.990;2023-05-23T13:23:40;46.53;40.41;58.31;;
68945;Laerm;55984;48.790;8.990;2023-05-23T13:26:06;47.77;41.38;64.23;;
68945;Laerm;55984;48.790;8.990;2023-05-23T13:28:32;48.52;41.81;61.34;;
68945;Laerm;55984;48.790;8.990;2023-05-23T13:30:58;47.53;42.50;59.24;;
68945;Laerm;55984;48.790;8.990;2023-05-23T13:33:24;48.72;41.93;66.30;;
68945;Laerm;55984;48.790;8.990;2023-05-23T13:35:50;48.00;42.59;63.79;;
68945;Laerm;55984;48.790;8.990;2023-05-23T13:38:17;49.36;43.27;65.29;;
68945;Laerm;55984;48.790;8.990;2023-05-23T13:40:48;55.04;44.51;68.23;;
68945;Laerm;55984;48.790;8.990;2023-05-23T13:43:15;48.86;43.63;62.28;;
68945;Laerm;55984;48.790;8.990;2023-05-23T13:45:42;47.11;43.32;55.11;;
68945;Laerm;55984;48.790;8.990;2023-05-23T13:48:07;46.56;43.32;57.90;;
68945;Laerm;55984;48.790;8.990;2023-05-23T13:50:34;46.59;42.89;51.96;;
68945;Laerm;55984;48.790;8.990;2023-05-23T13:53:00;49.77;42.02;61.82;;
68945;Laerm;55984;48.790;8.990;2023-05-23T13:55:25;46.21;41.33;58.15;;
68945;Laerm;55984;48.790;8.990;2023-05-23T13:57:51;45.64;41.26;51.56;;
68945;Laerm;55984;48.790;8.990;2023-05-23T14:00:17;45.69;41.11;51.00;;
68945;Laerm;55984;48.790;8.990;2023-05-23T14:02:43;48.92;42.26;58.94;;
68945;Laerm;55984;48.790;8.990;2023-05-23T14:05:09;45.90;40.43;54.80;;